sensor_id;sensor_type;location;lat;lon;timestamp;temperature;humidity
11532;DHT22;5822;51.000;5.874;2023-07-20T00:00:55;20.90;99.90
11532;DHT22;5822;51.000;5.874;2023-07-20T00:03:21;20.80;99.90
11532;DHT22;5822;51.000;5.874;2023-07-20T00:05:51;20.80;99.90
11532;DHT22;5822;51.000;5.874;2023-07-20T00:08:18;20.70;99.90
11532;DHT22;5822;51.000;5.874;2023-07-20T00:10:44;20.80;99.90
11532;DHT22;5822;51.000;5.874;2023-07-20T00:13:13;20.70;99.90
11532;DHT22;5822;51.000;5.874;2023-07-20T00:15:38;20.70;99.90
11532;DHT22;5822;51.000;5.874;2023-07-20T00:18:04;20.70;99.90
11532;DHT22;5822;51.000;5.874;2023-07-20T00:20:30;20.60;99.90
11532;DHT22;5822;51.000;5.874;2023-07-20T00:22:57;20.60;99.90
11532;DHT22;5822;51.000;5.874;2023-07-20T00:25:24;20.60;99.90
11532;DHT22;5822;51.000;5.874;2023-07-20T00:27:49;20.50;99.90
11532;DHT22;5822;51.000;5.874;2023-07-20T00:30:15;20.50;99.90
11532;DHT22;5822;51.000;5.874;2023-07-20T00:32:44;20.50;99.90
11532;DHT22;5822;51.000;5.874;2023-07-20T00:35:10;20.40;99.90
11532;DHT22;5822;51.000;5.874;2023-07-20T00:37:38;20.40;99.90
11532;DHT22;5822;51.000;5.874;2023-07-20T00:40:04;20.40;99.90
11532;DHT22;5822;51.000;5.874;2023-07-20T00:42:31;20.40;99.90
11532;DHT22;5822;51.000;5.874;2023-07-20T00:44:56;20.40;99.90
11532;DHT22;5822;51.000;5.874;2023-07-20T00:47:22;20.50;99.90
11532;DHT22;5822;51.000;5.874;2023-07-20T00:49:48;20.40;99.90
11532;DHT22;5822;51.000;5.874;2023-07-20T00:52:15;20.30;99.90
11532;DHT22;5822;51.000;5.874;2023-07-20T00:54:41;20.40;99.90
11532;DHT22;5822;51.000;5.874;2023-07-20T00:57:07;20.30;99.90
11532;DHT22;5822;51.000;5.874;2023-07-20T00:59:34;20.30;99.90
11532;DHT22;5822;51.000;5.874;2023-07-20T01:02:00;20.30;99.90
11532;DHT22;5822;51.000;5.874;2023-07-20T01:04:26;20.30;99.90
11532;DHT22;5822;51.000;5.874;2023-07-20T01:09:51;20.20;99.90
11532;DHT22;5822;51.000;5.874;2023-07-20T01:12:27;20.30;99.90
11532;DHT22;5822;51.000;5.874;2023-07-20T01:14:56;20.20;99.90
11532;DHT22;5822;51.000;5.874;2023-07-20T01:17:22;20.20;99.90
11532;DHT22;5822;51.000;5.874;2023-07-20T01:19:49;20.20;99.90
11532;DHT22;5822;51.000;5.874;2023-07-20T01:22:28;20.10;99.90
11532;DHT22;5822;51.000;5.874;2023-07-20T01:33:38;20.20;99.90
11532;DHT22;5822;51.000;5.874;2023-07-20T01:36:07;20.10;99.90
11532;DHT22;5822;51.000;5.874;2023-07-20T01:38:33;20.20;99.90
11532;DHT22;5822;51.000;5.874;2023-07-20T01:40:58;20.20;99.90
11532;DHT22;5822;51.000;5.874;2023-07-20T01:43:24;20.10;99.90
11532;DHT22;5822;51.000;5.874;2023-07-20T01:45:50;20.10;99.90
11532;DHT22;5822;51.000;5.874;2023-07-20T01:48:16;20.00;99.90
11532;DHT22;5822;51.000;5.874;2023-07-20T01:50:41;20.00;99.90
11532;DHT22;5822;51.000;5.874;2023-07-20T01:53:08;20.00;99.90
11532;DHT22;5822;51.000;5.874;2023-07-20T01:55:33;20.10;99.90
11532;DHT22;5822;51.000;5.874;2023-07-20T01:57:59;20.10;99.90
11532;DHT22;5822;51.000;5.874;2023-07-20T02:00:26;20.10;99.90
11532;DHT22;5822;51.000;5.874;2023-07-20T02:02:52;20.10;99.90
11532;DHT22;5822;51.000;5.874;2023-07-20T02:05:17;20.10;99.90
11532;DHT22;5822;51.000;5.874;2023-07-20T02:07:43;20.00;99.90
11532;DHT22;5822;51.000;5.874;2023-07-20T02:10:09;20.10;99.90
11532;DHT22;5822;51.000;5.874;2023-07-20T02:12:35;20.10;99.90
11532;DHT22;5822;51.000;5.874;2023-07-20T02:15:02;20.20;99.90
11532;DHT22;5822;51.000;5.874;2023-07-20T02:17:27;20.10;99.90
11532;DHT22;5822;51.000;5.874;2023-07-20T02:19:53;20.10;99.90
11532;DHT22;5822;51.000;5.874;2023-07-20T02:22:20;20.10;99.90
11532;DHT22;5822;51.000;5.874;2023-07-20T02:24:46;20.10;99.90
11532;DHT22;5822;51.000;5.874;2023-07-20T02:27:12;20.10;99.90
11532;DHT22;5822;51.000;5.874;2023-07-20T02:29:38;20.10;99.90
11532;DHT22;5822;51.000;5.874;2023-07-20T02:32:06;20.00;99.90
11532;DHT22;5822;51.000;5.874;2023-07-20T02:34:32;19.90;99.90
11532;DHT22;5822;51.000;5.874;2023-07-20T02:36:57;19.90;99.90
11532;DHT22;5822;51.000;5.874;2023-07-20T02:39:24;19.90;99.90
11532;DHT22;5822;51.000;5.874;2023-07-20T02:41:50;19.80;99.90
11532;DHT22;5822;51.000;5.874;2023-07-20T02:44:15;19.90;99.90
11532;DHT22;5822;51.000;5.874;2023-07-20T02:46:41;19.80;99.90
11532;DHT22;5822;51.000;5.874;2023-07-20T02:49:07;19.70;99.90
11532;DHT22;5822;51.000;5.874;2023-07-20T02:51:32;19.70;99.90
11532;DHT22;5822;51.000;5.874;2023-07-20T02:53:58;19.70;99.90
11532;DHT22;5822;51.000;5.874;2023-07-20T02:56:24;19.70;99.90
11532;DHT22;5822;51.000;5.874;2023-07-20T02:58:50;19.70;99.90
11532;DHT22;5822;51.000;5.874;2023-07-20T03:01:15;19.60;99.90
11532;DHT22;5822;51.000;5.874;2023-07-20T03:03:42;19.60;99.90
11532;DHT22;5822;51.000;5.874;2023-07-20T03:06:11;19.60;99.90
11532;DHT22;5822;51.000;5.874;2023-07-20T03:08:37;19.70;99.90
11532;DHT22;5822;51.000;5.874;2023-07-20T03:11:02;19.70;99.90
11532;DHT22;5822;51.000;5.874;2023-07-20T03:13:28;19.70;99.90
11532;DHT22;5822;51.000;5.874;2023-07-20T03:15:53;19.70;99.90
11532;DHT22;5822;51.000;5.874;2023-07-20T03:18:19;19.70;99.90
11532;DHT22;5822;51.000;5.874;2023-07-20T03:20:45;19.70;99.90
11532;DHT22;5822;51.000;5.874;2023-07-20T03:23:11;19.80;99.90
11532;DHT22;5822;51.000;5.874;2023-07-20T03:25:37;19.70;99.90
11532;DHT22;5822;51.000;5.874;2023-07-20T03:28:04;19.60;99.90
11532;DHT22;5822;51.000;5.874;2023-07-20T03:30:29;19.60;99.90
11532;DHT22;5822;51.000;5.874;2023-07-20T03:32:55;19.60;99.90
11532;DHT22;5822;51.000;5.874;2023-07-20T03:35:20;19.60;99.90
11532;DHT22;5822;51.000;5.874;2023-07-20T03:37:46;19.70;99.90
11532;DHT22;5822;51.000;5.874;2023-07-20T03:40:12;19.60;99.90
11532;DHT22;5822;51.000;5.874;2023-07-20T03:42:37;19.60;99.90
11532;DHT22;5822;51.000;5.874;2023-07-20T03:45:05;19.60;99.90
11532;DHT22;5822;51.000;5.874;2023-07-20T03:47:31;19.60;99.90
11532;DHT22;5822;51.000;5.874;2023-07-20T03:49:57;19.60;99.90
11532;DHT22;5822;51.000;5.874;2023-07-20T03:52:23;19.60;99.90
11532;DHT22;5822;51.000;5.874;2023-07-20T03:54:49;19.70;99.90
11532;DHT22;5822;51.000;5.874;2023-07-20T03:57:16;19.60;99.90
11532;DHT22;5822;51.000;5.874;2023-07-20T03:59:45;19.60;99.90
11532;DHT22;5822;51.000;5.874;2023-07-20T04:02:11;19.70;99.90
11532;DHT22;5822;51.000;5.874;2023-07-20T04:04:37;19.80;99.90
11532;DHT22;5822;51.000;5.874;2023-07-20T04:07:03;19.80;99.90
11532;DHT22;5822;51.000;5.874;2023-07-20T04:09:29;19.80;99.90
11532;DHT22;5822;51.000;5.874;2023-07-20T04:11:55;19.80;99.90
11532;DHT22;5822;51.000;5.874;2023-07-20T04:14:20;19.80;99.90
11532;DHT22;5822;51.000;5.874;2023-07-20T04:16:47;19.80;99.90
11532;DHT22;5822;51.000;5.874;2023-07-20T04:19:12;19.90;99.90
11532;DHT22;5822;51.000;5.874;2023-07-20T04:21:41;19.90;99.90
11532;DHT22;5822;51.000;5.874;2023-07-20T04:24:07;19.90;99.90
11532;DHT22;5822;51.000;5.874;2023-07-20T04:26:33;19.80;99.90
11532;DHT22;5822;51.000;5.874;2023-07-20T04:28:58;19.90;99.90
11532;DHT22;5822;51.000;5.874;2023-07-20T04:31:26;19.80;99.90
11532;DHT22;5822;51.000;5.874;2023-07-20T04:33:52;19.90;99.90
11532;DHT22;5822;51.000;5.874;2023-07-20T04:36:18;19.80;99.90
11532;DHT22;5822;51.000;5.874;2023-07-20T04:38:45;19.80;99.90
11532;DHT22;5822;51.000;5.874;2023-07-20T04:41:11;19.80;99.90
11532;DHT22;5822;51.000;5.874;2023-07-20T04:43:43;19.70;99.90
11532;DHT22;5822;51.000;5.874;2023-07-20T04:46:12;19.80;99.90
11532;DHT22;5822;51.000;5.874;2023-07-20T04:48:38;19.90;99.90
11532;DHT22;5822;51.000;5.874;2023-07-20T04:51:05;19.90;99.90
11532;DHT22;5822;51.000;5.874;2023-07-20T04:53:31;20.00;99.90
11532;DHT22;5822;51.000;5.874;2023-07-20T04:55:57;20.00;99.90
11532;DHT22;5822;51.000;5.874;2023-07-20T04:58:22;20.00;99.90
11532;DHT22;5822;51.000;5.874;2023-07-20T05:00:49;20.00;99.90
11532;DHT22;5822;51.000;5.874;2023-07-20T05:03:15;20.00;99.90
11532;DHT22;5822;51.000;5.874;2023-07-20T05:05:41;20.00;99.90
11532;DHT22;5822;51.000;5.874;2023-07-20T05:08:07;20.10;99.90
11532;DHT22;5822;51.000;5.874;2023-07-20T05:10:32;20.00;99.90
11532;DHT22;5822;51.000;5.874;2023-07-20T05:12:59;20.00;99.90
11532;DHT22;5822;51.000;5.874;2023-07-20T05:15:25;20.10;99.90
11532;DHT22;5822;51.000;5.874;2023-07-20T05:17:50;20.10;99.90
11532;DHT22;5822;51.000;5.874;2023-07-20T05:20:16;20.10;99.90
11532;DHT22;5822;51.000;5.874;2023-07-20T05:22:42;20.10;99.90
11532;DHT22;5822;51.000;5.874;2023-07-20T05:25:09;20.10;99.90
11532;DHT22;5822;51.000;5.874;2023-07-20T05:27:39;20.10;99.90
11532;DHT22;5822;51.000;5.874;2023-07-20T05:30:06;20.10;99.90
11532;DHT22;5822;51.000;5.874;2023-07-20T05:32:33;20.00;99.90
11532;DHT22;5822;51.000;5.874;2023-07-20T05:34:58;20.00;99.90
11532;DHT22;5822;51.000;5.874;2023-07-20T05:37:24;20.10;99.90
11532;DHT22;5822;51.000;5.874;2023-07-20T05:39:50;20.10;99.90
11532;DHT22;5822;51.000;5.874;2023-07-20T05:42:15;20.20;99.90
11532;DHT22;5822;51.000;5.874;2023-07-20T05:44:41;20.20;99.90
11532;DHT22;5822;51.000;5.874;2023-07-20T05:47:07;20.20;99.90
11532;DHT22;5822;51.000;5.874;2023-07-20T05:49:34;20.30;99.90
11532;DHT22;5822;51.000;5.874;2023-07-20T05:52:00;20.30;99.90
11532;DHT22;5822;51.000;5.874;2023-07-20T05:54:26;20.30;99.90
11532;DHT22;5822;51.000;5.874;2023-07-20T05:56:53;20.20;99.90
11532;DHT22;5822;51.000;5.874;2023-07-20T05:59:19;20.20;99.90
11532;DHT22;5822;51.000;5.874;2023-07-20T06:01:49;20.20;99.90
11532;DHT22;5822;51.000;5.874;2023-07-20T06:04:14;20.20;99.90
11532;DHT22;5822;51.000;5.874;2023-07-20T06:06:40;20.20;99.90
11532;DHT22;5822;51.000;5.874;2023-07-20T06:09:06;20.20;99.90
11532;DHT22;5822;51.000;5.874;2023-07-20T06:11:35;20.20;99.90
11532;DHT22;5822;51.000;5.874;2023-07-20T06:14:01;20.20;99.90
11532;DHT22;5822;51.000;5.874;2023-07-20T06:16:27;20.20;99.90
11532;DHT22;5822;51.000;5.874;2023-07-20T06:18:52;20.20;99.90
11532;DHT22;5822;51.000;5.874;2023-07-20T06:21:18;20.20;99.90
11532;DHT22;5822;51.000;5.874;2023-07-20T06:23:43;20.30;99.90
11532;DHT22;5822;51.000;5.874;2023-07-20T06:26:09;20.30;99.90
11532;DHT22;5822;51.000;5.874;2023-07-20T06:28:35;20.10;99.90
11532;DHT22;5822;51.000;5.874;2023-07-20T06:31:02;20.10;99.90
11532;DHT22;5822;51.000;5.874;2023-07-20T06:33:28;20.30;99.90
11532;DHT22;5822;51.000;5.874;2023-07-20T06:35:54;20.30;99.90
11532;DHT22;5822;51.000;5.874;2023-07-20T06:38:20;20.30;99.90
11532;DHT22;5822;51.000;5.874;2023-07-20T06:40:49;20.20;99.90
11532;DHT22;5822;51.000;5.874;2023-07-20T06:43:14;20.20;99.90
11532;DHT22;5822;51.000;5.874;2023-07-20T06:45:41;20.20;99.90
11532;DHT22;5822;51.000;5.874;2023-07-20T06:48:06;20.30;99.90
11532;DHT22;5822;51.000;5.874;2023-07-20T06:50:32;20.30;99.90
11532;DHT22;5822;51.000;5.874;2023-07-20T06:52:57;20.30;99.90
11532;DHT22;5822;51.000;5.874;2023-07-20T06:55:24;20.20;99.90
11532;DHT22;5822;51.000;5.874;2023-07-20T06:57:50;20.30;99.90
11532;DHT22;5822;51.000;5.874;2023-07-20T07:00:16;20.30;99.90
11532;DHT22;5822;51.000;5.874;2023-07-20T07:02:42;20.20;99.90
11532;DHT22;5822;51.000;5.874;2023-07-20T07:05:08;20.20;99.90
11532;DHT22;5822;51.000;5.874;2023-07-20T07:07:33;20.20;99.90
11532;DHT22;5822;51.000;5.874;2023-07-20T07:10:00;20.30;99.90
11532;DHT22;5822;51.000;5.874;2023-07-20T07:12:26;20.40;99.90
11532;DHT22;5822;51.000;5.874;2023-07-20T07:14:52;20.40;99.90
11532;DHT22;5822;51.000;5.874;2023-07-20T07:17:19;20.50;99.90
11532;DHT22;5822;51.000;5.874;2023-07-20T07:19:44;20.50;99.90
11532;DHT22;5822;51.000;5.874;2023-07-20T07:22:10;20.60;99.90
11532;DHT22;5822;51.000;5.874;2023-07-20T07:24:37;20.50;99.90
11532;DHT22;5822;51.000;5.874;2023-07-20T07:27:02;20.50;99.90
11532;DHT22;5822;51.000;5.874;2023-07-20T07:29:29;20.50;99.90
11532;DHT22;5822;51.000;5.874;2023-07-20T07:31:55;20.50;99.90
11532;DHT22;5822;51.000;5.874;2023-07-20T07:34:20;20.50;99.90
11532;DHT22;5822;51.000;5.874;2023-07-20T07:36:46;20.50;99.90
11532;DHT22;5822;51.000;5.874;2023-07-20T07:39:12;20.50;99.90
11532;DHT22;5822;51.000;5.874;2023-07-20T07:41:38;20.50;99.90
11532;DHT22;5822;51.000;5.874;2023-07-20T07:44:04;20.40;99.90
11532;DHT22;5822;51.000;5.874;2023-07-20T07:46:30;20.50;99.90
11532;DHT22;5822;51.000;5.874;2023-07-20T07:48:55;20.50;99.90
11532;DHT22;5822;51.000;5.874;2023-07-20T07:51:21;20.50;99.90
11532;DHT22;5822;51.000;5.874;2023-07-20T07:53:47;20.50;99.90
11532;DHT22;5822;51.000;5.874;2023-07-20T07:56:14;20.60;99.90
11532;DHT22;5822;51.000;5.874;2023-07-20T07:58:40;20.60;99.90
11532;DHT22;5822;51.000;5.874;2023-07-20T08:01:06;20.70;99.90
11532;DHT22;5822;51.000;5.874;2023-07-20T08:03:31;20.80;99.90
11532;DHT22;5822;51.000;5.874;2023-07-20T08:05:57;20.80;99.90
11532;DHT22;5822;51.000;5.874;2023-07-20T08:08:25;20.80;99.90
11532;DHT22;5822;51.000;5.874;2023-07-20T08:10:53;20.90;99.90
11532;DHT22;5822;51.000;5.874;2023-07-20T08:13:19;20.90;99.90
11532;DHT22;5822;51.000;5.874;2023-07-20T08:15:48;20.90;99.90
11532;DHT22;5822;51.000;5.874;2023-07-20T08:18:14;20.90;99.90
11532;DHT22;5822;51.000;5.874;2023-07-20T08:20:43;20.90;99.90
11532;DHT22;5822;51.000;5.874;2023-07-20T08:23:09;20.90;99.90
11532;DHT22;5822;51.000;5.874;2023-07-20T08:25:36;20.90;99.90
11532;DHT22;5822;51.000;5.874;2023-07-20T08:28:05;20.90;99.90
11532;DHT22;5822;51.000;5.874;2023-07-20T08:30:43;20.90;99.90
11532;DHT22;5822;51.000;5.874;2023-07-20T08:33:10;20.90;99.90
11532;DHT22;5822;51.000;5.874;2023-07-20T08:35:35;20.90;99.90
11532;DHT22;5822;51.000;5.874;2023-07-20T08:38:01;21.00;99.90
11532;DHT22;5822;51.000;5.874;2023-07-20T08:40:27;21.00;99.90
11532;DHT22;5822;51.000;5.874;2023-07-20T08:42:54;21.00;99.90
11532;DHT22;5822;51.000;5.874;2023-07-20T08:45:22;21.00;99.90
11532;DHT22;5822;51.000;5.874;2023-07-20T08:47:49;21.00;99.90
11532;DHT22;5822;51.000;5.874;2023-07-20T08:50:16;21.10;99.90
11532;DHT22;5822;51.000;5.874;2023-07-20T08:52:42;21.10;99.90
11532;DHT22;5822;51.000;5.874;2023-07-20T08:55:08;21.10;99.90
11532;DHT22;5822;51.000;5.874;2023-07-20T08:57:34;21.00;99.90
11532;DHT22;5822;51.000;5.874;2023-07-20T09:00:03;21.10;99.90
11532;DHT22;5822;51.000;5.874;2023-07-20T09:02:39;21.10;99.90
11532;DHT22;5822;51.000;5.874;2023-07-20T09:05:08;21.20;99.90
11532;DHT22;5822;51.000;5.874;2023-07-20T09:07:36;21.10;99.90
11532;DHT22;5822;51.000;5.874;2023-07-20T09:10:02;21.20;99.90
11532;DHT22;5822;51.000;5.874;2023-07-20T09:12:34;21.30;99.90
11532;DHT22;5822;51.000;5.874;2023-07-20T09:15:10;21.40;99.90
11532;DHT22;5822;51.000;5.874;2023-07-20T09:17:36;21.40;99.90
11532;DHT22;5822;51.000;5.874;2023-07-20T09:20:07;21.40;99.90
11532;DHT22;5822;51.000;5.874;2023-07-20T09:22:37;21.50;99.90
11532;DHT22;5822;51.000;5.874;2023-07-20T09:25:12;21.50;99.90
11532;DHT22;5822;51.000;5.874;2023-07-20T09:27:42;21.50;99.90
11532;DHT22;5822;51.000;5.874;2023-07-20T09:30:10;21.50;99.90
11532;DHT22;5822;51.000;5.874;2023-07-20T09:32:47;21.40;99.90
11532;DHT22;5822;51.000;5.874;2023-07-20T09:35:17;21.40;99.90
11532;DHT22;5822;51.000;5.874;2023-07-20T09:38:09;21.40;99.90
11532;DHT22;5822;51.000;5.874;2023-07-20T09:40:37;21.40;99.90
11532;DHT22;5822;51.000;5.874;2023-07-20T09:43:08;21.40;99.90
11532;DHT22;5822;51.000;5.874;2023-07-20T09:45:35;21.40;99.90
11532;DHT22;5822;51.000;5.874;2023-07-20T09:48:05;21.50;99.90
11532;DHT22;5822;51.000;5.874;2023-07-20T09:50:41;21.50;99.90
11532;DHT22;5822;51.000;5.874;2023-07-20T09:53:12;21.60;99.90
11532;DHT22;5822;51.000;5.874;2023-07-20T09:55:40;21.70;99.90
11532;DHT22;5822;51.000;5.874;2023-07-20T09:58:08;21.70;99.90
11532;DHT22;5822;51.000;5.874;2023-07-20T10:00:36;21.80;99.90
11532;DHT22;5822;51.000;5.874;2023-07-20T10:03:04;21.80;99.90
11532;DHT22;5822;51.000;5.874;2023-07-20T10:05:33;21.90;99.90
11532;DHT22;5822;51.000;5.874;2023-07-20T10:08:02;21.90;99.90
11532;DHT22;5822;51.000;5.874;2023-07-20T10:10:29;22.00;99.90
11532;DHT22;5822;51.000;5.874;2023-07-20T10:12:57;21.90;99.90
11532;DHT22;5822;51.000;5.874;2023-07-20T10:15:50;21.90;99.90
11532;DHT22;5822;51.000;5.874;2023-07-20T10:18:25;21.90;99.90
11532;DHT22;5822;51.000;5.874;2023-07-20T10:20:53;21.90;99.90
11532;DHT22;5822;51.000;5.874;2023-07-20T10:23:19;21.90;99.90
11532;DHT22;5822;51.000;5.874;2023-07-20T10:25:46;21.90;99.90
11532;DHT22;5822;51.000;5.874;2023-07-20T10:28:13;21.90;99.90
11532;DHT22;5822;51.000;5.874;2023-07-20T10:30:39;21.90;99.90
11532;DHT22;5822;51.000;5.874;2023-07-20T10:33:06;22.00;99.90
11532;DHT22;5822;51.000;5.874;2023-07-20T10:39:02;22.10;99.90
11532;DHT22;5822;51.000;5.874;2023-07-20T10:41:32;22.20;99.90
11532;DHT22;5822;51.000;5.874;2023-07-20T10:44:01;22.20;99.90
11532;DHT22;5822;51.000;5.874;2023-07-20T10:49:02;22.20;99.90
11532;DHT22;5822;51.000;5.874;2023-07-20T10:51:28;22.10;99.90
11532;DHT22;5822;51.000;5.874;2023-07-20T10:53:57;22.10;99.90
11532;DHT22;5822;51.000;5.874;2023-07-20T10:56:26;22.10;99.90
11532;DHT22;5822;51.000;5.874;2023-07-20T10:58:58;22.20;99.90
11532;DHT22;5822;51.000;5.874;2023-07-20T11:01:35;22.20;99.90
11532;DHT22;5822;51.000;5.874;2023-07-20T11:04:02;22.20;99.90
11532;DHT22;5822;51.000;5.874;2023-07-20T11:06:33;22.20;99.90
11532;DHT22;5822;51.000;5.874;2023-07-20T11:09:10;22.30;99.90
11532;DHT22;5822;51.000;5.874;2023-07-20T11:11:44;22.30;99.90
11532;DHT22;5822;51.000;5.874;2023-07-20T11:14:23;22.30;99.90
11532;DHT22;5822;51.000;5.874;2023-07-20T11:16:50;22.30;99.90
11532;DHT22;5822;51.000;5.874;2023-07-20T11:19:24;22.40;99.90
11532;DHT22;5822;51.000;5.874;2023-07-20T11:22:00;22.30;99.90
11532;DHT22;5822;51.000;5.874;2023-07-20T11:24:30;22.30;99.90
11532;DHT22;5822;51.000;5.874;2023-07-20T11:26:56;22.20;99.90
11532;DHT22;5822;51.000;5.874;2023-07-20T11:29:23;22.20;99.90
11532;DHT22;5822;51.000;5.874;2023-07-20T11:31:50;22.20;99.90
11532;DHT22;5822;51.000;5.874;2023-07-20T11:34:20;22.10;99.90
11532;DHT22;5822;51.000;5.874;2023-07-20T11:36:50;22.20;99.90
11532;DHT22;5822;51.000;5.874;2023-07-20T11:39:18;22.10;99.90
11532;DHT22;5822;51.000;5.874;2023-07-20T11:41:56;22.20;99.90
11532;DHT22;5822;51.000;5.874;2023-07-20T11:44:24;22.20;99.90
11532;DHT22;5822;51.000;5.874;2023-07-20T11:47:19;22.20;99.90
11532;DHT22;5822;51.000;5.874;2023-07-20T11:49:45;22.20;99.90
11532;DHT22;5822;51.000;5.874;2023-07-20T11:52:16;22.20;99.90
11532;DHT22;5822;51.000;5.874;2023-07-20T11:54:43;22.30;99.90
11532;DHT22;5822;51.000;5.874;2023-07-20T11:57:22;22.30;99.90
11532;DHT22;5822;51.000;5.874;2023-07-20T12:00:00;22.40;99.90
11532;DHT22;5822;51.000;5.874;2023-07-20T12:02:27;22.40;99.90
11532;DHT22;5822;51.000;5.874;2023-07-20T12:04:54;22.50;99.90
11532;DHT22;5822;51.000;5.874;2023-07-20T12:07:20;22.60;99.90
11532;DHT22;5822;51.000;5.874;2023-07-20T12:10:10;22.60;99.90
11532;DHT22;5822;51.000;5.874;2023-07-20T12:12:40;22.60;99.90
11532;DHT22;5822;51.000;5.874;2023-07-20T12:15:24;22.70;99.90
11532;DHT22;5822;51.000;5.874;2023-07-20T12:17:53;22.80;99.90
11532;DHT22;5822;51.000;5.874;2023-07-20T12:20:26;22.90;99.90
11532;DHT22;5822;51.000;5.874;2023-07-20T12:22:52;23.00;99.90
11532;DHT22;5822;51.000;5.874;2023-07-20T12:25:18;23.00;99.90
11532;DHT22;5822;51.000;5.874;2023-07-20T12:27:45;23.00;99.90
11532;DHT22;5822;51.000;5.874;2023-07-20T12:30:12;23.00;99.90
11532;DHT22;5822;51.000;5.874;2023-07-20T12:32:39;23.10;99.90
11532;DHT22;5822;51.000;5.874;2023-07-20T12:35:05;23.10;99.90
11532;DHT22;5822;51.000;5.874;2023-07-20T12:37:31;23.10;99.90
11532;DHT22;5822;51.000;5.874;2023-07-20T12:39:57;23.10;99.90
11532;DHT22;5822;51.000;5.874;2023-07-20T12:42:23;23.20;99.90
11532;DHT22;5822;51.000;5.874;2023-07-20T12:44:49;23.20;99.90
11532;DHT22;5822;51.000;5.874;2023-07-20T12:47:17;23.20;99.90
11532;DHT22;5822;51.000;5.874;2023-07-20T12:49:45;23.20;99.90
11532;DHT22;5822;51.000;5.874;2023-07-20T12:52:12;23.20;99.90
11532;DHT22;5822;51.000;5.874;2023-07-20T12:54:37;23.30;99.90
11532;DHT22;5822;51.000;5.874;2023-07-20T12:57:03;23.30;99.90
11532;DHT22;5822;51.000;5.874;2023-07-20T12:59:29;23.40;99.90
11532;DHT22;5822;51.000;5.874;2023-07-20T13:01:55;23.40;99.90
11532;DHT22;5822;51.000;5.874;2023-07-20T13:04:20;23.40;99.90
11532;DHT22;5822;51.000;5.874;2023-07-20T13:06:46;23.50;99.90
11532;DHT22;5822;51.000;5.874;2023-07-20T13:09:12;23.60;99.90
11532;DHT22;5822;51.000;5.874;2023-07-20T13:11:37;23.60;99.90
11532;DHT22;5822;51.000;5.874;2023-07-20T13:14:03;23.60;99.90
11532;DHT22;5822;51.000;5.874;2023-07-20T13:16:29;23.70;99.90
11532;DHT22;5822;51.000;5.874;2023-07-20T13:18:54;23.80;99.90
11532;DHT22;5822;51.000;5.874;2023-07-20T13:21:20;23.80;99.90
11532;DHT22;5822;51.000;5.874;2023-07-20T13:23:48;24.10;99.90
11532;DHT22;5822;51.000;5.874;2023-07-20T13:26:15;24.10;99.90
11532;DHT22;5822;51.000;5.874;2023-07-20T13:28:41;24.20;99.90
11532;DHT22;5822;51.000;5.874;2023-07-20T13:31:07;24.30;99.90
11532;DHT22;5822;51.000;5.874;2023-07-20T13:33:35;24.20;99.90
11532;DHT22;5822;51.000;5.874;2023-07-20T13:36:01;24.10;99.90
11532;DHT22;5822;51.000;5.874;2023-07-20T13:38:27;24.00;99.90
11532;DHT22;5822;51.000;5.874;2023-07-20T13:40:53;24.00;99.90
11532;DHT22;5822;51.000;5.874;2023-07-20T13:43:18;23.90;99.90
11532;DHT22;5822;51.000;5.874;2023-07-20T13:45:44;23.90;99.90
11532;DHT22;5822;51.000;5.874;2023-07-20T13:48:10;23.80;99.90
11532;DHT22;5822;51.000;5.874;2023-07-20T13:50:35;23.70;99.90
11532;DHT22;5822;51.000;5.874;2023-07-20T13:53:01;23.70;99.90
11532;DHT22;5822;51.000;5.874;2023-07-20T13:55:28;23.80;99.90
11532;DHT22;5822;51.000;5.874;2023-07-20T13:57:56;23.90;99.90
11532;DHT22;5822;51.000;5.874;2023-07-20T14:00:22;23.90;99.90
11532;DHT22;5822;51.000;5.874;2023-07-20T14:02:47;23.90;99.90
11532;DHT22;5822;51.000;5.874;2023-07-20T14:05:13;23.80;99.90
11532;DHT22;5822;51.000;5.874;2023-07-20T14:07:41;23.80;99.90
11532;DHT22;5822;51.000;5.874;2023-07-20T14:10:07;23.80;99.90
11532;DHT22;5822;51.000;5.874;2023-07-20T14:12:33;23.90;99.90
11532;DHT22;5822;51.000;5.874;2023-07-20T14:14:58;23.90;99.90
11532;DHT22;5822;51.000;5.874;2023-07-20T14:17:24;23.90;99.90
11532;DHT22;5822;51.000;5.874;2023-07-20T14:19:50;23.90;99.90
11532;DHT22;5822;51.000;5.874;2023-07-20T14:22:16;24.00;99.90
11532;DHT22;5822;51.000;5.874;2023-07-20T14:24:42;24.00;99.90
11532;DHT22;5822;51.000;5.874;2023-07-20T14:27:08;24.00;99.90
11532;DHT22;5822;51.000;5.874;2023-07-20T14:29:33;23.90;99.90
11532;DHT22;5822;51.000;5.874;2023-07-20T14:32:01;23.90;99.90
11532;DHT22;5822;51.000;5.874;2023-07-20T14:34:28;23.90;99.90
11532;DHT22;5822;51.000;5.874;2023-07-20T14:36:53;24.00;99.90
11532;DHT22;5822;51.000;5.874;2023-07-20T14:39:19;24.00;99.90
11532;DHT22;5822;51.000;5.874;2023-07-20T14:41:45;24.10;99.90
11532;DHT22;5822;51.000;5.874;2023-07-20T14:44:11;24.20;99.90
11532;DHT22;5822;51.000;5.874;2023-07-20T14:46:37;24.20;99.90
11532;DHT22;5822;51.000;5.874;2023-07-20T14:49:02;24.30;99.90
11532;DHT22;5822;51.000;5.874;2023-07-20T14:51:28;24.40;99.90
11532;DHT22;5822;51.000;5.874;2023-07-20T14:53:59;24.50;99.90
11532;DHT22;5822;51.000;5.874;2023-07-20T14:56:25;24.60;99.90
11532;DHT22;5822;51.000;5.874;2023-07-20T14:58:51;24.60;99.90
11532;DHT22;5822;51.000;5.874;2023-07-20T15:01:17;24.60;99.90
11532;DHT22;5822;51.000;5.874;2023-07-20T15:03:45;24.60;99.90
11532;DHT22;5822;51.000;5.874;2023-07-20T15:06:11;24.60;99.90
11532;DHT22;5822;51.000;5.874;2023-07-20T15:08:37;24.70;99.90
11532;DHT22;5822;51.000;5.874;2023-07-20T15:11:03;24.70;99.90
11532;DHT22;5822;51.000;5.874;2023-07-20T15:13:28;24.60;99.90
11532;DHT22;5822;51.000;5.874;2023-07-20T15:15:54;24.50;99.90
11532;DHT22;5822;51.000;5.874;2023-07-20T15:18:20;24.50;99.90
11532;DHT22;5822;51.000;5.874;2023-07-20T15:20:46;24.50;99.90
11532;DHT22;5822;51.000;5.874;2023-07-20T15:23:13;24.50;99.90
11532;DHT22;5822;51.000;5.874;2023-07-20T15:25:39;24.50;99.90
11532;DHT22;5822;51.000;5.874;2023-07-20T15:28:04;24.50;99.90
11532;DHT22;5822;51.000;5.874;2023-07-20T15:30:30;24.50;99.90
11532;DHT22;5822;51.000;5.874;2023-07-20T15:32:56;24.50;99.90
11532;DHT22;5822;51.000;5.874;2023-07-20T15:35:23;24.50;99.90
11532;DHT22;5822;51.000;5.874;2023-07-20T15:37:48;24.50;99.90
11532;DHT22;5822;51.000;5.874;2023-07-20T15:40:20;24.50;99.90
11532;DHT22;5822;51.000;5.874;2023-07-20T15:42:47;24.50;99.90
11532;DHT22;5822;51.000;5.874;2023-07-20T15:45:13;24.40;99.90
11532;DHT22;5822;51.000;5.874;2023-07-20T15:47:38;24.40;99.90
11532;DHT22;5822;51.000;5.874;2023-07-20T15:50:05;24.40;99.90
11532;DHT22;5822;51.000;5.874;2023-07-20T15:52:31;24.30;99.90
11532;DHT22;5822;51.000;5.874;2023-07-20T15:54:57;24.30;99.90
11532;DHT22;5822;51.000;5.874;2023-07-20T15:57:23;24.30;99.90
11532;DHT22;5822;51.000;5.874;2023-07-20T15:59:48;24.30;99.90
11532;DHT22;5822;51.000;5.874;2023-07-20T16:02:14;24.20;99.90